Time;durP1;ratioP1;P1;durP2;ratioP2;P2;SDS_P1;SDS_P2;PMS_P1;PMS_P2;Temp;Humidity;BMP_temperature;BMP_pressure;BME280_temperature;BME280_humidity;BME280_pressure;Samples;Min_cycle;Max_cycle;Signal;HPM_P1;HPM_P2
2022/09/14 00:01:42;;;;;;;21.65;19.55;;;18.20;98.70;;;;;;5059315;28;20440;-67
2022/09/14 00:04:13;;;;;;;25.53;23.03;;;18.20;98.70;;;;;;5061611;28;20507;-67
2022/09/14 00:06:40;;;;;;;26.63;23.83;;;18.20;98.80;;;;;;5062714;28;20574;-69
2022/09/14 00:09:10;;;;;;;29.20;26.20;;;18.20;98.90;;;;;;5062138;28;20432;-68
2022/09/14 00:11:38;;;;;;;34.08;29.38;;;18.30;98.90;;;;;;5060610;28;20435;-71
2022/09/14 00:14:06;;;;;;;39.80;32.20;;;18.20;99.00;;;;;;5059911;28;20436;-68
2022/09/14 00:16:36;;;;;;;38.03;33.38;;;18.30;99.10;;;;;;5058044;28;20815;-70
2022/09/14 00:19:07;;;;;;;32.75;29.42;;;18.30;99.20;;;;;;5062477;28;20431;-67
2022/09/14 00:21:36;;;;;;;37.70;33.70;;;18.30;99.20;;;;;;5053726;28;20473;-68
2022/09/14 00:24:04;;;;;;;37.33;33.50;;;18.30;99.30;;;;;;5061499;28;20427;-68
2022/09/14 00:26:30;;;;;;;38.30;34.55;;;18.30;99.30;;;;;;5061648;28;20438;-72
2022/09/14 00:29:03;;;;;;;35.72;32.03;;;18.30;99.30;;;;;;5059350;28;20447;-68
2022/09/14 00:31:30;;;;;;;39.88;35.78;;;18.30;99.20;;;;;;5060456;28;20439;-69
2022/09/14 00:33:58;;;;;;;40.85;36.47;;;18.30;99.20;;;;;;5060593;28;20427;-67
2022/09/14 00:36:28;;;;;;;45.87;40.60;;;18.20;99.20;;;;;;5061961;28;20438;-67
2022/09/14 00:38:56;;;;;;;39.67;35.65;;;18.20;99.30;;;;;;5061456;28;20488;-69
2022/09/14 00:41:26;;;;;;;43.35;38.50;;;18.20;99.20;;;;;;5058771;28;20764;-67
2022/09/14 00:43:55;;;;;;;44.83;40.03;;;18.10;99.20;;;;;;5059378;28;20431;-66
2022/09/14 00:46:23;;;;;;;40.75;36.47;;;18.20;99.30;;;;;;5056340;28;20515;-67
2022/09/14 00:48:50;;;;;;;40.77;36.57;;;18.20;99.20;;;;;;5060958;28;20439;-67
2022/09/14 00:51:19;;;;;;;42.75;38.35;;;18.10;99.20;;;;;;5060363;28;20518;-71
2022/09/14 00:53:46;;;;;;;37.73;33.90;;;18.10;99.20;;;;;;5059610;28;20432;-68
2022/09/14 00:56:14;;;;;;;39.90;35.90;;;18.10;99.10;;;;;;5059107;28;20436;-67
2022/09/14 00:58:42;;;;;;;42.58;38.13;;;18.10;99.10;;;;;;5058991;28;20439;-67
2022/09/14 01:01:09;;;;;;;44.08;39.35;;;18.10;99.10;;;;;;5058768;28;20423;-68
2022/09/14 01:03:36;;;;;;;41.30;36.80;;;18.10;99.10;;;;;;5060244;28;20438;-69
2022/09/14 01:06:13;;;;;;;43.78;39.08;;;18.10;99.10;;;;;;5060106;28;20526;-69
2022/09/14 01:08:59;;;;;;;42.85;37.65;;;18.10;99.10;;;;;;5056078;28;20435;-70
2022/09/14 01:11:54;;;;;;;41.30;36.80;;;18.10;99.00;;;;;;5058979;28;22250;-69
2022/09/14 01:14:31;;;;;;;42.65;37.85;;;18.10;98.90;;;;;;5059109;28;20436;-67
2022/09/14 01:17:06;;;;;;;40.67;36.55;;;18.00;98.90;;;;;;5061515;28;20530;-67
2022/09/14 01:19:57;;;;;;;54.35;44.67;;;18.00;98.90;;;;;;5061704;28;20431;-70
2022/09/14 01:22:36;;;;;;;48.70;42.60;;;18.10;99.10;;;;;;5055287;28;20443;-69
2022/09/14 01:25:16;;;;;;;49.67;42.80;;;18.10;99.10;;;;;;5060069;28;20436;-69
2022/09/14 01:27:44;;;;;;;46.92;40.58;;;18.10;99.10;;;;;;5059971;28;21201;-69
2022/09/14 01:30:14;;;;;;;52.83;44.35;;;18.10;99.10;;;;;;5055953;28;20427;-69
2022/09/14 01:32:46;;;;;;;43.63;39.15;;;18.10;99.10;;;;;;5056278;28;20427;-68
2022/09/14 01:35:17;;;;;;;50.90;45.33;;;18.00;99.00;;;;;;5058839;28;20534;-67
2022/09/14 01:37:49;;;;;;;52.35;44.75;;;18.10;99.20;;;;;;5061659;28;20753;-70
2022/09/14 01:40:21;;;;;;;44.47;39.42;;;18.10;99.20;;;;;;5060079;28;20475;-70
2022/09/14 01:42:53;;;;;;;43.90;37.90;;;18.10;99.20;;;;;;5059444;28;20538;-69
2022/09/14 01:45:22;;;;;;;39.38;33.42;;;18.10;99.10;;;;;;5056782;28;20446;-69
2022/09/14 01:47:54;;;;;;;48.20;37.65;;;18.10;99.00;;;;;;5059534;28;20435;-69
2022/09/14 01:50:25;;;;;;;46.13;35.47;;;18.10;99.00;;;;;;5059702;28;20868;-68
2022/09/14 01:52:58;;;;;;;41.40;32.42;;;18.10;99.00;;;;;;5057610;28;20529;-68
2022/09/14 01:55:30;;;;;;;50.85;35.30;;;18.00;98.90;;;;;;5057585;28;20531;-69
2022/09/14 01:58:04;;;;;;;42.90;32.65;;;18.00;99.00;;;;;;5060037;28;20534;-68
2022/09/14 02:00:32;;;;;;;42.50;32.88;;;18.10;99.00;;;;;;5057716;28;20447;-68
2022/09/14 02:03:04;;;;;;;44.22;32.63;;;18.10;99.00;;;;;;5059038;28;20432;-69
2022/09/14 02:05:37;;;;;;;58.88;35.00;;;18.00;99.00;;;;;;5059474;28;20431;-68
2022/09/14 02:08:04;;;;;;;53.75;35.58;;;18.00;99.10;;;;;;5057546;28;20450;-68
2022/09/14 02:10:32;;;;;;;50.20;33.40;;;18.00;99.20;;;;;;5057952;28;20431;-70
2022/09/14 02:13:00;;;;;;;52.90;34.67;;;18.00;99.20;;;;;;5060356;28;20497;-68
2022/09/14 02:15:27;;;;;;;51.22;32.72;;;18.00;99.30;;;;;;5056019;28;20876;-69
2022/09/14 02:17:54;;;;;;;44.35;31.02;;;18.00;99.30;;;;;;5060102;28;20447;-67
2022/09/14 02:20:24;;;;;;;40.38;30.02;;;18.00;99.20;;;;;;5059740;28;20447;-69
2022/09/14 02:22:52;;;;;;;43.72;31.23;;;17.90;99.10;;;;;;5057886;28;20542;-69
2022/09/14 02:25:20;;;;;;;59.78;35.90;;;17.90;99.10;;;;;;5060585;28;20435;-68
2022/09/14 02:27:48;;;;;;;57.53;34.63;;;17.90;99.40;;;;;;5059898;28;20427;-69
2022/09/14 02:30:19;;;;;;;35.25;30.13;;;17.90;99.40;;;;;;5059206;28;20673;-67
2022/09/14 02:32:55;;;;;;;48.03;33.47;;;17.90;99.70;;;;;;5062203;28;20514;-68
2022/09/14 02:35:26;;;;;;;45.33;34.10;;;17.90;99.40;;;;;;5062116;28;20553;-68
2022/09/14 02:38:00;;;;;;;53.15;36.80;;;17.90;99.40;;;;;;5060065;28;20496;-69
2022/09/14 02:40:34;;;;;;;66.35;42.83;;;17.80;99.40;;;;;;5061557;28;21056;-69
2022/09/14 02:43:12;;;;;;;56.08;41.45;;;17.80;99.60;;;;;;5061933;28;20447;-69
2022/09/14 02:45:49;;;;;;;66.40;44.20;;;17.80;99.60;;;;;;5054427;28;20429;-69
2022/09/14 02:48:25;;;;;;;57.30;41.15;;;17.80;99.60;;;;;;5062967;28;20442;-69
2022/09/14 02:50:58;;;;;;;65.90;44.47;;;17.80;99.60;;;;;;5061892;28;20509;-68
2022/09/14 02:53:30;;;;;;;73.38;49.35;;;17.80;99.70;;;;;;5063324;28;20432;-69
2022/09/14 02:56:00;;;;;;;58.60;41.28;;;17.90;99.90;;;;;;5062944;28;20446;-68
2022/09/14 02:58:35;;;;;;;52.33;39.92;;;17.90;99.90;;;;;;5062447;28;20447;-68
2022/09/14 03:01:04;;;;;;;52.75;38.03;;;17.90;99.90;;;;;;5058250;28;20530;-67
2022/09/14 03:03:31;;;;;;;40.78;33.75;;;17.90;99.90;;;;;;5063343;28;20433;-68
2022/09/14 03:05:58;;;;;;;48.78;36.40;;;17.90;99.90;;;;;;5063474;28;20513;-68
2022/09/14 03:08:25;;;;;;;58.00;40.88;;;17.80;99.90;;;;;;5063468;28;20454;-71
2022/09/14 03:10:51;;;;;;;52.67;38.30;;;17.90;99.90;;;;;;5063270;28;20454;-70
2022/09/14 03:13:18;;;;;;;48.05;37.25;;;17.90;99.90;;;;;;5061889;28;20435;-67
2022/09/14 03:15:45;;;;;;;49.08;37.72;;;17.90;99.90;;;;;;5062976;28;20427;-69
2022/09/14 03:18:13;;;;;;;47.63;36.77;;;17.90;99.90;;;;;;5062078;28;20476;-67
2022/09/14 03:20:40;;;;;;;50.38;38.88;;;17.90;99.90;;;;;;5060845;28;20490;-65
2022/09/14 03:23:09;;;;;;;44.60;34.38;;;17.90;99.90;;;;;;5063474;28;20488;-69
2022/09/14 03:25:37;;;;;;;56.22;40.92;;;17.90;99.90;;;;;;5058334;28;20528;-69
2022/09/14 03:28:05;;;;;;;52.22;37.80;;;17.90;99.90;;;;;;5072865;22;20443;-72
2022/09/14 03:30:33;;;;;;;56.83;40.40;;;17.90;99.90;;;;;;5064262;28;20461;-73
2022/09/14 03:33:00;;;;;;;48.30;37.53;;;17.90;99.90;;;;;;5066847;28;20442;-73
2022/09/14 03:35:30;;;;;;;46.75;37.30;;;17.90;99.90;;;;;;5064874;28;20436;-73
2022/09/14 03:37:57;;;;;;;63.03;42.75;;;17.90;99.90;;;;;;5056036;28;20487;-72
2022/09/14 03:40:25;;;;;;;60.95;41.47;;;17.90;99.90;;;;;;5049480;28;20440;-73
2022/09/14 03:42:52;;;;;;;65.88;43.75;;;17.90;99.90;;;;;;5051932;28;20422;-72
2022/09/14 03:45:20;;;;;;;59.97;42.47;;;18.00;99.90;;;;;;5051366;28;20424;-71
2022/09/14 03:47:47;;;;;;;72.65;48.50;;;18.00;99.90;;;;;;5051511;28;20436;-71
2022/09/14 03:50:15;;;;;;;59.03;43.95;;;18.00;99.90;;;;;;5046354;28;20427;-72
2022/09/14 03:52:43;;;;;;;85.13;47.55;;;18.00;99.90;;;;;;5050494;28;20433;-72
2022/09/14 03:55:10;;;;;;;58.85;45.88;;;18.00;99.90;;;;;;5050726;28;20429;-72
2022/09/14 03:57:37;;;;;;;62.10;46.05;;;18.00;99.90;;;;;;5051982;28;20437;-72
2022/09/14 04:00:06;;;;;;;84.20;51.72;;;18.00;99.90;;;;;;5051836;28;20440;-73
2022/09/14 04:02:32;;;;;;;78.65;50.58;;;18.00;99.90;;;;;;5053357;28;20440;-72
2022/09/14 04:04:59;;;;;;;70.28;50.00;;;18.00;99.90;;;;;;5044987;28;20433;-73
2022/09/14 04:07:26;;;;;;;91.00;55.80;;;18.00;99.90;;;;;;5043426;28;20433;-74
2022/09/14 04:09:55;;;;;;;86.75;56.55;;;18.00;99.90;;;;;;5047043;28;20941;-72
2022/09/14 04:12:21;;;;;;;105.83;62.90;;;18.10;99.90;;;;;;5045938;28;20441;-72
2022/09/14 04:14:48;;;;;;;90.47;61.50;;;18.10;99.90;;;;;;5045579;28;21205;-72
2022/09/14 04:17:15;;;;;;;82.43;53.85;;;18.10;99.90;;;;;;5056164;28;20433;-72
2022/09/14 04:19:42;;;;;;;76.97;53.00;;;18.10;99.90;;;;;;5052312;28;20524;-73
2022/09/14 04:22:09;;;;;;;68.20;48.40;;;18.10;99.90;;;;;;5060947;28;20507;-73
2022/09/14 04:24:36;;;;;;;89.93;55.70;;;18.00;99.90;;;;;;5071609;28;20438;-73
2022/09/14 04:27:04;;;;;;;88.80;52.50;;;18.00;99.90;;;;;;5070594;28;20416;-73
2022/09/14 04:29:31;;;;;;;89.18;53.35;;;18.00;99.90;;;;;;5053519;28;20429;-71
2022/09/14 04:31:58;;;;;;;83.70;52.45;;;18.00;99.90;;;;;;5044585;28;20459;-71
2022/09/14 04:34:25;;;;;;;88.25;56.80;;;18.00;99.90;;;;;;5053203;28;20432;-72
2022/09/14 04:36:51;;;;;;;81.38;52.05;;;18.10;99.90;;;;;;5040508;28;20421;-72
2022/09/14 04:39:18;;;;;;;91.05;55.63;;;18.00;99.90;;;;;;5045533;28;20524;-72
2022/09/14 04:41:46;;;;;;;85.78;54.50;;;18.00;99.90;;;;;;5044267;28;20540;-72
2022/09/14 04:44:14;;;;;;;98.57;55.83;;;18.00;99.90;;;;;;5043285;28;20432;-72
2022/09/14 04:46:41;;;;;;;103.97;59.13;;;18.00;99.90;;;;;;5059234;28;20433;-71
2022/09/14 04:49:08;;;;;;;78.22;51.60;;;18.00;99.90;;;;;;5067041;28;20436;-73
2022/09/14 04:51:36;;;;;;;62.80;45.65;;;18.10;99.90;;;;;;5066088;28;20405;-72
2022/09/14 04:54:05;;;;;;;72.55;49.25;;;18.00;99.90;;;;;;5070354;28;20444;-73
2022/09/14 04:56:33;;;;;;;117.22;67.82;;;18.00;99.90;;;;;;5062863;28;20429;-72
2022/09/14 04:59:04;;;;;;;113.45;65.68;;;18.00;99.90;;;;;;5054769;28;20926;-71
2022/09/14 05:01:35;;;;;;;90.22;54.33;;;18.00;99.90;;;;;;5069200;28;20425;-71
2022/09/14 05:04:04;;;;;;;98.13;56.63;;;18.00;99.90;;;;;;5078729;28;20413;-73
2022/09/14 05:06:32;;;;;;;96.70;57.38;;;18.10;99.90;;;;;;5070022;28;20432;-71
2022/09/14 05:09:00;;;;;;;85.37;54.23;;;18.10;99.90;;;;;;5065017;28;20433;-71
2022/09/14 05:11:28;;;;;;;94.80;53.42;;;18.00;99.90;;;;;;5071535;28;20426;-71
2022/09/14 05:13:56;;;;;;;97.55;55.03;;;18.00;99.90;;;;;;5079356;28;20417;-70
2022/09/14 05:16:25;;;;;;;66.78;46.35;;;18.00;99.90;;;;;;5070269;28;20448;-70
2022/09/14 05:18:54;;;;;;;89.70;51.90;;;18.00;99.90;;;;;;5058243;28;20785;-72
2022/09/14 05:21:23;;;;;;;109.35;54.25;;;18.00;99.90;;;;;;5049059;28;20421;-73
2022/09/14 05:23:53;;;;;;;115.10;56.10;;;18.00;99.90;;;;;;5052042;28;20429;-73
2022/09/14 05:26:20;;;;;;;120.60;57.85;;;18.00;99.90;;;;;;5049374;28;20417;-73
2022/09/14 05:28:50;;;;;;;101.07;55.00;;;18.00;99.90;;;;;;5046887;28;20433;-72
2022/09/14 05:31:17;;;;;;;96.57;53.05;;;18.00;99.90;;;;;;5049174;28;20425;-72
2022/09/14 05:33:44;;;;;;;134.85;61.45;;;18.00;99.90;;;;;;5047905;28;20429;-72
2022/09/14 05:36:12;;;;;;;119.35;59.60;;;18.10;99.90;;;;;;5048689;28;20425;-73
2022/09/14 05:38:39;;;;;;;44.35;30.13;;;18.10;99.90;;;;;;5048266;28;20925;-72
2022/09/14 05:41:07;;;;;;;44.25;29.35;;;18.10;99.90;;;;;;5045138;28;20807;-72
2022/09/14 05:43:34;;;;;;;43.97;26.58;;;18.00;99.90;;;;;;5040547;28;20430;-71
2022/09/14 05:46:02;;;;;;;34.80;21.92;;;18.00;99.90;;;;;;5041347;28;20442;-71
2022/09/14 05:48:31;;;;;;;34.58;20.85;;;18.00;99.90;;;;;;5043755;28;20519;-72
2022/09/14 05:50:59;;;;;;;34.08;20.58;;;17.90;99.90;;;;;;5049785;28;20965;-72
2022/09/14 05:53:27;;;;;;;49.78;23.88;;;17.90;99.90;;;;;;5050796;28;20803;-72
2022/09/14 05:56:02;;;;;;;46.13;25.00;;;17.90;99.90;;;;;;5055217;28;20910;-72
2022/09/14 05:58:29;;;;;;;34.80;22.73;;;17.90;99.90;;;;;;5055364;28;20475;-72
2022/09/14 06:00:56;;;;;;;48.10;24.45;;;17.90;99.90;;;;;;5045970;28;20437;-71
2022/09/14 06:03:22;;;;;;;44.05;23.75;;;17.90;99.90;;;;;;5046972;28;20423;-72
2022/09/14 06:05:49;;;;;;;39.90;24.13;;;17.90;99.90;;;;;;5048687;28;20506;-71
2022/09/14 06:08:16;;;;;;;40.70;23.60;;;17.90;99.90;;;;;;5047769;28;20435;-71
2022/09/14 06:10:44;;;;;;;36.55;22.85;;;17.90;99.90;;;;;;5047699;28;20895;-72
2022/09/14 06:13:11;;;;;;;33.93;21.73;;;17.90;99.90;;;;;;5051004;28;20423;-73
2022/09/14 06:15:38;;;;;;;33.15;21.63;;;17.80;99.90;;;;;;5041643;28;20433;-69
2022/09/14 06:18:04;;;;;;;37.17;21.30;;;17.80;99.90;;;;;;5045590;28;20626;-72
2022/09/14 06:20:31;;;;;;;27.10;18.60;;;17.80;99.90;;;;;;5043926;28;20429;-73
2022/09/14 06:22:58;;;;;;;18.85;15.48;;;17.80;99.90;;;;;;5057012;28;20431;-73
2022/09/14 06:25:25;;;;;;;19.17;14.25;;;17.70;99.90;;;;;;5047668;28;20440;-72
2022/09/14 06:27:54;;;;;;;15.60;12.48;;;17.70;99.90;;;;;;5040770;28;20533;-70
2022/09/14 06:30:21;;;;;;;14.80;12.63;;;17.60;99.90;;;;;;5044715;28;20429;-72
2022/09/14 06:32:48;;;;;;;17.63;13.50;;;17.60;99.90;;;;;;5039276;28;20436;-71
2022/09/14 06:35:15;;;;;;;14.55;12.13;;;17.50;99.90;;;;;;5047505;28;20424;-72
2022/09/14 06:37:42;;;;;;;14.25;11.80;;;17.50;99.90;;;;;;5041373;28;20429;-71
2022/09/14 06:40:09;;;;;;;13.90;11.27;;;17.50;99.90;;;;;;5052949;28;20440;-71
2022/09/14 06:42:36;;;;;;;13.60;11.67;;;17.50;99.90;;;;;;5047432;28;20935;-73
2022/09/14 06:45:05;;;;;;;11.65;10.45;;;17.50;99.90;;;;;;5041221;28;20438;-72
2022/09/14 06:47:33;;;;;;;9.20;8.30;;;17.50;99.90;;;;;;5048292;28;20425;-71
2022/09/14 06:50:00;;;;;;;6.05;5.55;;;17.50;99.90;;;;;;5042990;28;20434;-72
2022/09/14 06:52:27;;;;;;;6.60;6.00;;;17.40;99.90;;;;;;5047356;28;20807;-72
2022/09/14 06:54:53;;;;;;;7.75;6.50;;;17.40;99.90;;;;;;5049359;28;20431;-71
2022/09/14 06:57:20;;;;;;;5.97;5.00;;;17.30;99.90;;;;;;5060376;28;20413;-73
2022/09/14 06:59:47;;;;;;;8.25;6.20;;;17.20;99.90;;;;;;5050330;28;20437;-72
2022/09/14 07:02:16;;;;;;;6.55;5.30;;;17.20;99.90;;;;;;5049836;28;20889;-74
2022/09/14 07:04:43;;;;;;;7.05;6.35;;;17.20;99.90;;;;;;5047346;28;20425;-71
2022/09/14 07:07:10;;;;;;;9.27;7.60;;;17.10;99.90;;;;;;5039746;28;21182;-73
2022/09/14 07:09:37;;;;;;;6.93;6.30;;;17.10;99.90;;;;;;5047211;28;20437;-71
2022/09/14 07:12:04;;;;;;;8.97;8.10;;;17.20;99.90;;;;;;5049217;28;20421;-71
2022/09/14 07:14:31;;;;;;;7.80;7.00;;;17.10;99.90;;;;;;5047365;28;20931;-71
2022/09/14 07:16:58;;;;;;;8.35;7.65;;;17.00;99.90;;;;;;5050068;28;20433;-72
2022/09/14 07:19:26;;;;;;;7.73;7.07;;;17.00;99.90;;;;;;5048890;28;20437;-72
2022/09/14 07:21:53;;;;;;;8.65;7.85;;;17.00;99.90;;;;;;5050388;28;20445;-71
2022/09/14 07:24:20;;;;;;;9.07;8.27;;;17.00;99.90;;;;;;5048072;28;20437;-71
2022/09/14 07:26:47;;;;;;;10.68;9.68;;;17.00;99.90;;;;;;5050791;28;20423;-71
2022/09/14 07:29:16;;;;;;;8.90;8.10;;;17.00;99.90;;;;;;5048821;28;20433;-72
2022/09/14 07:31:45;;;;;;;7.57;6.97;;;17.00;99.90;;;;;;5050159;28;20418;-71
2022/09/14 07:34:12;;;;;;;8.40;7.70;;;17.00;99.90;;;;;;5050719;28;20413;-70
2022/09/14 07:36:41;;;;;;;8.63;7.90;;;16.90;99.90;;;;;;5050950;28;21048;-73
2022/09/14 07:39:11;;;;;;;8.25;7.55;;;16.90;99.90;;;;;;5050716;28;20433;-71
2022/09/14 07:41:37;;;;;;;9.73;8.73;;;16.90;99.90;;;;;;5042652;28;21040;-71
2022/09/14 07:44:06;;;;;;;9.55;8.65;;;16.90;99.90;;;;;;5047414;28;20810;-73
2022/09/14 07:46:38;;;;;;;10.90;10.00;;;16.90;99.90;;;;;;5046305;28;20621;-72
2022/09/14 07:49:06;;;;;;;11.30;10.10;;;16.90;99.90;;;;;;5045958;28;20409;-72
2022/09/14 07:51:33;;;;;;;11.70;10.68;;;17.00;99.90;;;;;;5051909;28;20452;-71
2022/09/14 07:54:02;;;;;;;12.57;11.57;;;17.00;99.90;;;;;;5049798;28;20437;-71
2022/09/14 07:56:29;;;;;;;12.27;11.30;;;17.00;99.90;;;;;;5049561;28;20997;-71
2022/09/14 07:58:57;;;;;;;13.90;12.80;;;17.00;99.90;;;;;;5043381;28;20441;-70
2022/09/14 08:01:25;;;;;;;16.73;15.35;;;17.10;99.90;;;;;;5049593;28;20414;-72
2022/09/14 08:03:51;;;;;;;15.20;14.10;;;17.10;99.90;;;;;;5049686;28;20437;-71
2022/09/14 08:06:20;;;;;;;16.30;15.00;;;17.10;99.90;;;;;;5047822;28;20428;-71
2022/09/14 08:08:48;;;;;;;16.70;15.40;;;17.20;99.90;;;;;;5049562;28;20960;-71
2022/09/14 08:11:19;;;;;;;18.83;17.00;;;17.20;99.90;;;;;;5048668;28;20437;-71
2022/09/14 08:13:51;;;;;;;17.60;16.20;;;17.20;99.90;;;;;;5049931;28;20487;-71
2022/09/14 08:16:19;;;;;;;22.40;20.20;;;17.20;99.90;;;;;;5048042;28;20429;-72
2022/09/14 08:18:46;;;;;;;22.75;20.35;;;17.20;99.90;;;;;;5043349;28;20869;-72
2022/09/14 08:21:15;;;;;;;22.88;20.77;;;17.20;99.90;;;;;;5061427;28;20441;-71
2022/09/14 08:23:42;;;;;;;25.20;22.70;;;17.20;99.90;;;;;;5052523;28;20433;-72
2022/09/14 08:26:11;;;;;;;26.15;23.40;;;17.30;99.90;;;;;;5050469;28;20441;-72
2022/09/14 08:28:40;;;;;;;26.33;23.73;;;17.30;99.90;;;;;;5049660;28;20417;-71
2022/09/14 08:31:08;;;;;;;27.25;24.75;;;17.40;99.90;;;;;;5049725;28;20472;-72
2022/09/14 08:33:37;;;;;;;26.05;23.58;;;17.50;99.90;;;;;;5061429;28;20500;-69
2022/09/14 08:36:04;;;;;;;23.70;21.40;;;17.50;99.90;;;;;;5061187;28;20802;-71
2022/09/14 08:38:31;;;;;;;26.00;23.50;;;17.50;99.90;;;;;;5054874;28;20433;-71
2022/09/14 08:41:05;;;;;;;27.40;24.70;;;17.50;99.90;;;;;;5046216;28;20437;-71
2022/09/14 08:43:32;;;;;;;23.80;21.70;;;17.60;99.90;;;;;;5049870;28;20459;-71
2022/09/14 08:46:05;;;;;;;24.05;21.83;;;17.50;99.90;;;;;;5049767;28;20879;-71
2022/09/14 08:48:36;;;;;;;24.98;22.70;;;17.50;99.90;;;;;;5047941;28;20438;-71
2022/09/14 08:51:05;;;;;;;27.52;25.00;;;17.40;99.90;;;;;;5055551;28;20435;-71
2022/09/14 08:53:40;;;;;;;25.73;23.35;;;17.40;99.90;;;;;;5088931;28;20401;-70
2022/09/14 08:56:13;;;;;;;25.30;23.10;;;17.30;99.90;;;;;;5071842;28;20428;-70
2022/09/14 08:59:00;;;;;;;28.95;26.30;;;17.20;99.90;;;;;;5067018;28;20414;-70
2022/09/14 09:01:36;;;;;;;30.95;28.05;;;17.20;99.90;;;;;;5078368;28;20671;-69
2022/09/14 09:04:27;;;;;;;31.40;28.52;;;17.20;99.90;;;;;;5056234;28;20453;-70
2022/09/14 09:07:01;;;;;;;30.90;28.00;;;17.20;99.90;;;;;;5048654;28;20440;-70
2022/09/14 09:09:36;;;;;;;35.00;31.40;;;17.20;99.90;;;;;;5049568;28;20436;-71
2022/09/14 09:12:04;;;;;;;28.08;25.77;;;17.30;99.90;;;;;;5044234;28;20433;-70
2022/09/14 09:14:34;;;;;;;30.75;28.00;;;17.20;99.90;;;;;;5048509;28;20430;-70
2022/09/14 09:17:09;;;;;;;27.47;25.20;;;17.20;99.90;;;;;;5046510;28;20437;-70
2022/09/14 09:19:41;;;;;;;29.08;26.52;;;17.10;99.90;;;;;;5064205;28;20797;-69
2022/09/14 09:22:16;;;;;;;28.30;25.70;;;17.10;99.90;;;;;;5062919;28;20393;-70
2022/09/14 09:24:47;;;;;;;25.00;23.00;;;17.10;99.90;;;;;;5074298;28;20438;-71
2022/09/14 09:27:16;;;;;;;29.70;27.00;;;17.10;99.90;;;;;;5052540;28;20756;-72
2022/09/14 09:29:43;;;;;;;29.95;27.30;;;17.10;99.90;;;;;;5065059;28;20435;-71
2022/09/14 09:32:15;;;;;;;28.10;25.50;;;17.10;99.90;;;;;;5058804;28;20417;-71
2022/09/14 09:34:41;;;;;;;32.10;29.00;;;17.10;99.90;;;;;;5043376;28;20428;-70
2022/09/14 09:37:14;;;;;;;32.65;29.75;;;17.20;99.90;;;;;;5049769;28;20811;-70
2022/09/14 09:39:40;;;;;;;30.45;27.65;;;17.30;99.90;;;;;;5049649;28;20520;-70
2022/09/14 09:42:13;;;;;;;32.42;29.20;;;17.30;99.90;;;;;;5046485;28;20436;-70
2022/09/14 09:44:55;;;;;;;32.83;29.83;;;17.30;99.90;;;;;;5049439;28;20417;-70
2022/09/14 09:47:29;;;;;;;34.95;31.73;;;17.30;99.90;;;;;;5049453;28;20425;-71
2022/09/14 09:50:01;;;;;;;33.08;30.08;;;17.30;99.90;;;;;;5062210;28;20897;-70
2022/09/14 09:52:29;;;;;;;30.30;27.80;;;17.30;99.90;;;;;;5047936;28;20761;-71
2022/09/14 09:54:58;;;;;;;33.45;30.65;;;17.30;99.90;;;;;;5053255;28;20487;-69
2022/09/14 09:57:29;;;;;;;36.00;32.75;;;17.30;99.90;;;;;;5051678;28;21048;-69
2022/09/14 10:00:12;;;;;;;31.13;28.52;;;17.30;99.90;;;;;;5049684;28;20413;-71
2022/09/14 10:02:40;;;;;;;33.33;30.42;;;17.40;99.90;;;;;;5050122;28;20495;-70
2022/09/14 10:05:23;;;;;;;30.75;28.05;;;17.40;99.90;;;;;;5049510;28;20436;-70
2022/09/14 10:07:56;;;;;;;31.13;28.42;;;17.30;99.90;;;;;;5050561;28;20417;-71
2022/09/14 10:10:26;;;;;;;29.85;27.08;;;17.40;99.90;;;;;;5049409;28;20435;-71
2022/09/14 10:12:55;;;;;;;32.03;29.13;;;17.40;99.90;;;;;;5053618;28;20413;-70
2022/09/14 10:15:25;;;;;;;30.08;27.67;;;17.40;99.90;;;;;;5059583;28;20429;-70
2022/09/14 10:18:17;;;;;;;27.33;25.13;;;17.40;99.90;;;;;;5049132;28;20490;-70
2022/09/14 10:21:04;;;;;;;25.08;23.08;;;17.50;99.90;;;;;;5047746;28;20433;-70
2022/09/14 10:23:35;;;;;;;23.13;21.23;;;17.50;99.90;;;;;;5048759;28;20520;-70
2022/09/14 10:26:23;;;;;;;22.67;20.83;;;17.50;99.90;;;;;;5045866;28;20980;-70
2022/09/14 10:28:51;;;;;;;23.75;21.95;;;17.40;99.90;;;;;;5024702;28;20485;-70
2022/09/14 10:31:25;;;;;;;21.20;19.50;;;17.50;99.90;;;;;;5048761;28;20445;-70
2022/09/14 10:33:55;;;;;;;21.90;20.20;;;17.40;99.90;;;;;;5051730;28;20409;-70
2022/09/14 10:36:28;;;;;;;21.48;19.67;;;17.40;99.90;;;;;;5054641;28;20413;-70
2022/09/14 10:38:58;;;;;;;22.60;20.90;;;17.40;99.90;;;;;;5068440;28;20413;-70
2022/09/14 10:41:30;;;;;;;23.67;21.77;;;17.30;99.90;;;;;;5065245;28;20445;-70
2022/09/14 10:44:29;;;;;;;25.92;23.73;;;17.40;99.90;;;;;;5072789;28;20491;-70
2022/09/14 10:47:23;;;;;;;27.60;25.10;;;17.30;99.90;;;;;;5063888;28;20424;-69
2022/09/14 10:50:06;;;;;;;23.80;21.80;;;17.40;99.90;;;;;;5065720;28;20440;-70
2022/09/14 10:52:43;;;;;;;22.50;20.50;;;17.40;99.90;;;;;;5065788;28;20499;-71
2022/09/14 10:55:35;;;;;;;19.33;17.83;;;17.40;99.90;;;;;;5048328;28;20921;-70
2022/09/14 10:58:21;;;;;;;21.67;19.77;;;17.30;99.90;;;;;;5046682;28;20514;-70
2022/09/14 11:00:58;;;;;;;24.55;22.35;;;17.20;99.90;;;;;;5046254;28;20417;-71
2022/09/14 11:03:38;;;;;;;25.67;23.40;;;17.20;99.90;;;;;;5052638;28;20437;-70
2022/09/14 11:06:17;;;;;;;23.80;21.73;;;17.10;99.90;;;;;;5051867;28;20429;-70
2022/09/14 11:08:48;;;;;;;24.63;22.33;;;17.10;99.90;;;;;;5044400;28;20436;-71
2022/09/14 11:11:32;;;;;;;21.45;19.75;;;17.20;99.90;;;;;;5050296;28;20437;-71
2022/09/14 11:14:14;;;;;;;20.80;19.10;;;17.10;99.90;;;;;;5052506;28;20775;-71
2022/09/14 11:17:01;;;;;;;21.43;19.67;;;17.10;99.90;;;;;;5052730;28;20425;-70
2022/09/14 11:19:36;;;;;;;23.63;21.50;;;17.10;99.90;;;;;;5058911;28;20595;-70
2022/09/14 11:22:12;;;;;;;24.08;21.88;;;17.20;99.90;;;;;;5051032;28;20496;-71
2022/09/14 11:24:43;;;;;;;25.07;22.97;;;17.20;99.90;;;;;;5043851;28;20483;-71
2022/09/14 11:27:18;;;;;;;26.77;24.48;;;17.20;99.90;;;;;;5049161;28;20428;-71
2022/09/14 11:29:51;;;;;;;26.90;24.60;;;17.20;99.90;;;;;;5051710;28;20413;-71
2022/09/14 11:32:22;;;;;;;26.25;24.15;;;17.20;99.90;;;;;;5052056;28;20417;-71
2022/09/14 11:34:55;;;;;;;26.88;24.65;;;17.20;99.90;;;;;;5050874;28;20425;-71
2022/09/14 11:37:31;;;;;;;29.00;26.50;;;17.20;99.90;;;;;;5068843;22;20444;-68
2022/09/14 11:40:06;;;;;;;28.77;26.17;;;17.30;99.90;;;;;;5057537;28;20437;-68
2022/09/14 11:42:40;;;;;;;30.95;28.20;;;17.30;99.90;;;;;;5077028;28;20422;-68
2022/09/14 11:45:16;;;;;;;29.35;26.75;;;17.40;99.90;;;;;;5065256;28;20431;-69
2022/09/14 11:47:47;;;;;;;26.80;24.50;;;17.50;99.90;;;;;;5062533;28;20430;-69
2022/09/14 11:50:19;;;;;;;26.33;24.02;;;17.60;99.90;;;;;;5067399;28;20918;-68
2022/09/14 11:53:02;;;;;;;21.95;20.05;;;17.70;99.90;;;;;;5060948;28;20435;-67
2022/09/14 11:55:29;;;;;;;19.20;17.80;;;17.80;99.90;;;;;;5060736;28;20437;-68
2022/09/14 11:57:57;;;;;;;19.23;17.83;;;17.90;99.90;;;;;;5061851;28;20817;-68
2022/09/14 12:01:14;;;;;;;19.55;18.15;;;17.90;99.90;;;;;;5066102;28;20429;-68
2022/09/14 12:03:53;;;;;;;19.55;18.05;;;17.90;99.90;;;;;;4967023;28;20436;-68
2022/09/14 12:06:49;;;;;;;18.70;17.15;;;17.90;99.90;;;;;;5052290;28;20430;-68
2022/09/14 12:09:49;;;;;;;18.07;16.70;;;17.90;99.90;;;;;;5064690;28;20450;-68
2022/09/14 12:12:38;;;;;;;17.98;16.67;;;18.00;99.90;;;;;;4997699;28;20948;-67
2022/09/14 12:15:33;;;;;;;18.27;16.77;;;18.00;99.90;;;;;;5061651;28;20423;-68
2022/09/14 12:18:21;;;;;;;17.33;16.02;;;18.00;99.90;;;;;;5054031;28;20458;-67
2022/09/14 12:20:51;;;;;;;19.05;17.50;;;18.00;99.90;;;;;;5061094;28;21059;-67
2022/09/14 12:23:41;;;;;;;21.08;19.48;;;18.00;99.90;;;;;;5066233;28;20431;-67
2022/09/14 12:26:29;;;;;;;22.02;20.33;;;18.00;99.90;;;;;;5065302;28;20438;-67
2022/09/14 12:29:01;;;;;;;22.80;21.00;;;18.00;99.90;;;;;;5058230;28;20429;-67
2022/09/14 12:31:38;;;;;;;18.73;17.33;;;18.00;99.90;;;;;;5057077;28;20947;-67
2022/09/14 12:34:17;;;;;;;18.17;16.88;;;18.00;99.90;;;;;;5059770;28;20463;-67
2022/09/14 12:37:18;;;;;;;20.52;19.02;;;18.00;99.90;;;;;;5059167;28;21152;-67
2022/09/14 12:40:22;;;;;;;21.88;20.27;;;18.00;99.50;;;;;;5054894;28;20457;-68
2022/09/14 12:42:50;;;;;;;23.30;21.70;;;17.90;99.30;;;;;;5068464;28;20439;-67
2022/09/14 12:45:49;;;;;;;20.95;19.45;;;17.80;99.20;;;;;;5063854;28;20424;-67
2022/09/14 12:48:54;;;;;;;18.02;16.80;;;17.80;99.00;;;;;;5025033;28;20488;-67
2022/09/14 12:51:31;;;;;;;19.20;17.83;;;17.70;98.90;;;;;;5066107;28;20414;-67